Time;durP1;ratioP1;P1;durP2;ratioP2;P2;SDS_P1;SDS_P2;PMS_P1;PMS_P2;Temp;Humidity;BMP_temperature;BMP_pressure;BME280_temperature;BME280_humidity;BME280_pressure;Samples;Min_cycle;Max_cycle;Signal;HPM_P1;HPM_P2
2023/12/20 00:00:33;;;;;;;18.45;10.70;;;;;;;;;;2095674;28;20048;-77
2023/12/20 00:01:54;;;;;;;21.33;10.68;;;;;;;;;;2097753;28;20051;-75
2023/12/20 00:03:15;;;;;;;18.60;10.73;;;;;;;;;;2098181;28;20028;-74
2023/12/20 00:04:36;;;;;;;19.83;11.55;;;;;;;;;;2098311;28;20036;-74
2023/12/20 00:05:57;;;;;;;21.80;10.18;;;;;;;;;;2091695;28;20396;-75
2023/12/20 00:07:18;;;;;;;20.65;11.52;;;;;;;;;;2096408;28;20028;-75
2023/12/20 00:08:38;;;;;;;23.88;12.38;;;;;;;;;;2092742;28;20062;-74
2023/12/20 00:09:59;;;;;;;25.58;11.20;;;;;;;;;;2084418;28;20033;-74
2023/12/20 00:11:20;;;;;;;21.48;10.70;;;;;;;;;;2087432;28;20024;-74
2023/12/20 00:12:41;;;;;;;22.38;12.30;;;;;;;;;;2089102;28;20037;-75
2023/12/20 00:14:02;;;;;;;24.65;12.50;;;;;;;;;;2086536;28;20024;-75
2023/12/20 00:15:23;;;;;;;30.80;12.65;;;;;;;;;;2092274;28;20028;-74
2023/12/20 00:16:44;;;;;;;29.17;12.25;;;;;;;;;;2094184;28;20036;-74
2023/12/20 00:18:05;;;;;;;23.17;12.32;;;;;;;;;;2087861;28;20504;-74
2023/12/20 00:19:26;;;;;;;27.27;12.35;;;;;;;;;;2083969;28;20054;-75
2023/12/20 00:20:47;;;;;;;24.55;11.52;;;;;;;;;;2092751;28;20028;-75
2023/12/20 00:22:07;;;;;;;22.15;12.27;;;;;;;;;;2089094;28;21915;-75
2023/12/20 00:23:28;;;;;;;20.83;10.52;;;;;;;;;;2088677;28;20041;-75
2023/12/20 00:24:49;;;;;;;27.45;12.07;;;;;;;;;;2085211;28;20138;-74
2023/12/20 00:26:10;;;;;;;25.52;11.57;;;;;;;;;;2086440;28;20033;-75
2023/12/20 00:27:31;;;;;;;23.58;12.02;;;;;;;;;;2087136;28;20076;-75
2023/12/20 00:28:52;;;;;;;23.73;11.18;;;;;;;;;;2086517;28;20029;-75
2023/12/20 00:30:13;;;;;;;24.63;11.15;;;;;;;;;;2086324;28;20497;-75
2023/12/20 00:31:34;;;;;;;21.42;11.00;;;;;;;;;;2082195;28;20045;-75
2023/12/20 00:32:55;;;;;;;22.83;10.70;;;;;;;;;;2076569;28;20057;-75
2023/12/20 00:34:16;;;;;;;19.23;10.05;;;;;;;;;;2084280;28;20029;-75
2023/12/20 00:35:37;;;;;;;20.55;10.48;;;;;;;;;;2089088;28;20032;-75
2023/12/20 00:36:58;;;;;;;22.10;10.55;;;;;;;;;;2086373;28;20036;-76
2023/12/20 00:38:19;;;;;;;27.38;9.75;;;;;;;;;;2087130;28;20493;-76
2023/12/20 00:39:40;;;;;;;19.98;10.63;;;;;;;;;;2087744;28;20420;-76
2023/12/20 00:41:00;;;;;;;19.17;10.23;;;;;;;;;;2085916;28;20041;-76
2023/12/20 00:42:21;;;;;;;20.30;9.75;;;;;;;;;;2085777;28;20033;-76
2023/12/20 00:43:42;;;;;;;20.45;8.68;;;;;;;;;;2081558;28;20386;-76
2023/12/20 00:45:04;;;;;;;16.05;8.70;;;;;;;;;;2080063;28;20080;-76
2023/12/20 00:46:25;;;;;;;25.98;10.63;;;;;;;;;;2084609;28;20091;-76
2023/12/20 00:47:46;;;;;;;15.63;9.60;;;;;;;;;;2087977;28;20060;-75
2023/12/20 00:49:07;;;;;;;17.00;8.40;;;;;;;;;;2087942;28;20029;-76
2023/12/20 00:50:28;;;;;;;18.52;9.02;;;;;;;;;;2082205;28;20080;-76
2023/12/20 00:51:50;;;;;;;22.17;10.68;;;;;;;;;;2084718;28;20087;-75
2023/12/20 00:53:11;;;;;;;;;;;;;;;;;;2081690;28;20030;-74
2023/12/20 00:54:32;;;;;;;19.55;9.43;;;;;;;;;;2088795;28;19916;-75
2023/12/20 00:55:53;;;;;;;18.98;8.80;;;;;;;;;;2082649;28;20026;-75
2023/12/20 00:57:14;;;;;;;22.27;9.05;;;;;;;;;;2082405;28;20032;-75
2023/12/20 00:58:35;;;;;;;14.15;8.40;;;;;;;;;;2087502;28;20464;-76
2023/12/20 00:59:55;;;;;;;21.13;9.65;;;;;;;;;;2083555;28;20416;-75
2023/12/20 01:01:17;;;;;;;16.40;9.05;;;;;;;;;;2083413;28;20025;-76
2023/12/20 01:02:37;;;;;;;19.50;10.02;;;;;;;;;;2085293;28;20397;-77
2023/12/20 01:03:58;;;;;;;19.92;10.15;;;;;;;;;;2087739;28;20044;-77
2023/12/20 01:05:22;;;;;;;19.33;8.77;;;;;;;;;;2082928;28;20029;-76
2023/12/20 01:06:43;;;;;;;21.63;9.73;;;;;;;;;;2085961;28;20030;-77
2023/12/20 01:08:05;;;;;;;17.73;8.90;;;;;;;;;;2091614;28;20028;-76
2023/12/20 01:09:29;;;;;;;20.35;9.05;;;;;;;;;;2095157;28;20032;-77
2023/12/20 01:10:50;;;;;;;20.90;8.27;;;;;;;;;;2094745;28;20029;-76
2023/12/20 01:12:10;;;;;;;19.50;8.57;;;;;;;;;;2093888;28;20033;-76
2023/12/20 01:13:31;;;;;;;14.93;8.60;;;;;;;;;;2094438;28;20039;-75
2023/12/20 01:14:52;;;;;;;18.13;9.05;;;;;;;;;;2095009;28;20040;-75
2023/12/20 01:16:13;;;;;;;12.70;8.20;;;;;;;;;;2095486;28;20017;-75
2023/12/20 01:17:34;;;;;;;23.92;9.10;;;;;;;;;;2094138;28;20101;-75
2023/12/20 01:18:55;;;;;;;15.07;8.70;;;;;;;;;;2093175;28;20416;-75
2023/12/20 01:20:16;;;;;;;21.70;9.48;;;;;;;;;;2093554;28;20047;-75
2023/12/20 01:21:37;;;;;;;19.30;9.10;;;;;;;;;;2094052;28;20036;-76
2023/12/20 01:22:58;;;;;;;16.42;8.75;;;;;;;;;;2091416;28;20432;-76
2023/12/20 01:24:19;;;;;;;19.45;8.90;;;;;;;;;;2094399;28;20029;-76
2023/12/20 01:25:40;;;;;;;20.30;8.95;;;;;;;;;;2094559;28;20484;-76
2023/12/20 01:27:01;;;;;;;13.57;8.52;;;;;;;;;;2092967;28;20040;-75
2023/12/20 01:28:22;;;;;;;18.08;9.07;;;;;;;;;;2092953;28;20048;-76
2023/12/20 01:29:43;;;;;;;21.52;9.82;;;;;;;;;;2094268;28;20448;-75
2023/12/20 01:31:04;;;;;;;19.88;9.50;;;;;;;;;;2094013;28;20037;-76
2023/12/20 01:32:25;;;;;;;20.80;9.43;;;;;;;;;;2095636;28;20032;-75
2023/12/20 01:33:46;;;;;;;21.65;9.52;;;;;;;;;;2092612;28;20044;-75
2023/12/20 01:35:07;;;;;;;20.92;9.50;;;;;;;;;;2095151;28;20078;-75
2023/12/20 01:36:27;;;;;;;20.73;9.00;;;;;;;;;;2093909;28;20506;-76
2023/12/20 01:37:48;;;;;;;16.92;9.27;;;;;;;;;;2097695;28;20033;-76
2023/12/20 01:39:09;;;;;;;18.40;7.80;;;;;;;;;;2094665;28;20028;-75
2023/12/20 01:40:30;;;;;;;17.00;8.95;;;;;;;;;;2094973;28;20024;-76
2023/12/20 01:41:51;;;;;;;18.27;9.18;;;;;;;;;;2092896;28;20032;-75
2023/12/20 01:43:12;;;;;;;18.08;8.85;;;;;;;;;;2103795;28;20101;-76
2023/12/20 01:44:33;;;;;;;17.77;8.27;;;;;;;;;;2089268;28;20036;-76
2023/12/20 01:45:55;;;;;;;19.10;9.93;;;;;;;;;;2094093;28;20029;-75
2023/12/20 01:47:16;;;;;;;18.52;10.00;;;;;;;;;;2093000;28;20074;-75
2023/12/20 01:48:37;;;;;;;23.60;10.18;;;;;;;;;;2094127;28;20033;-75
2023/12/20 01:49:59;;;;;;;21.13;9.65;;;;;;;;;;2095290;28;20021;-76
2023/12/20 01:51:20;;;;;;;21.65;9.52;;;;;;;;;;2093637;28;20029;-75
2023/12/20 01:52:42;;;;;;;20.15;9.23;;;;;;;;;;2094804;28;20078;-76
2023/12/20 01:54:03;;;;;;;16.02;8.88;;;;;;;;;;2095755;28;20032;-75
2023/12/20 01:55:24;;;;;;;15.45;8.85;;;;;;;;;;2092442;28;20028;-75
2023/12/20 01:56:45;;;;;;;12.45;8.20;;;;;;;;;;2088655;28;20392;-75
2023/12/20 01:58:07;;;;;;;16.67;9.70;;;;;;;;;;2091481;28;20523;-76
2023/12/20 01:59:28;;;;;;;18.73;8.73;;;;;;;;;;2091864;28;20405;-75
2023/12/20 02:00:50;;;;;;;19.73;8.85;;;;;;;;;;2089978;28;20600;-75
2023/12/20 02:02:12;;;;;;;21.90;10.20;;;;;;;;;;2094718;28;20043;-76
2023/12/20 02:03:34;;;;;;;18.60;8.82;;;;;;;;;;2094649;28;20428;-75
2023/12/20 02:04:55;;;;;;;;;;;;;;;;;;2095167;28;20024;-76
2023/12/20 02:06:16;;;;;;;16.45;9.20;;;;;;;;;;2090074;28;19908;-76
2023/12/20 02:07:37;;;;;;;26.63;9.95;;;;;;;;;;2094350;28;20075;-75
2023/12/20 02:08:58;;;;;;;15.45;9.02;;;;;;;;;;2093251;28;20040;-75
2023/12/20 02:10:20;;;;;;;17.42;8.80;;;;;;;;;;2092787;28;20154;-75
2023/12/20 02:11:41;;;;;;;20.23;9.00;;;;;;;;;;2095556;28;20433;-76
2023/12/20 02:13:02;;;;;;;21.52;9.55;;;;;;;;;;2094700;28;20102;-75
2023/12/20 02:14:24;;;;;;;20.15;8.60;;;;;;;;;;2090710;28;20404;-76
2023/12/20 02:15:45;;;;;;;20.05;10.48;;;;;;;;;;2091513;28;20032;-76
2023/12/20 02:17:06;;;;;;;20.85;10.18;;;;;;;;;;2089610;28;20094;-75
2023/12/20 02:18:27;;;;;;;15.10;9.77;;;;;;;;;;2097272;28;20180;-75
2023/12/20 02:19:48;;;;;;;17.85;8.73;;;;;;;;;;2095852;28;20079;-76
2023/12/20 02:21:09;;;;;;;21.02;9.20;;;;;;;;;;2093534;28;20047;-75
2023/12/20 02:22:30;;;;;;;16.27;9.40;;;;;;;;;;2095246;28;20036;-76
2023/12/20 02:23:51;;;;;;;24.15;9.90;;;;;;;;;;2091105;28;20028;-75
2023/12/20 02:25:11;;;;;;;25.98;10.35;;;;;;;;;;2092446;28;20032;-75
2023/12/20 02:26:33;;;;;;;17.33;9.98;;;;;;;;;;2094687;28;20033;-76
2023/12/20 02:27:54;;;;;;;20.40;10.05;;;;;;;;;;2096388;28;20076;-75
2023/12/20 02:29:15;;;;;;;21.80;10.57;;;;;;;;;;2092346;28;20032;-74
2023/12/20 02:30:36;;;;;;;23.02;9.88;;;;;;;;;;2093422;28;20025;-75
2023/12/20 02:31:57;;;;;;;21.33;9.52;;;;;;;;;;2090017;28;20036;-75
2023/12/20 02:33:18;;;;;;;28.20;10.88;;;;;;;;;;2094282;28;20040;-76
2023/12/20 02:34:39;;;;;;;26.75;10.35;;;;;;;;;;2093651;28;20090;-76
2023/12/20 02:36:00;;;;;;;17.40;8.50;;;;;;;;;;2092069;28;20032;-76
2023/12/20 02:37:21;;;;;;;21.05;10.57;;;;;;;;;;2094957;28;20040;-75
2023/12/20 02:38:41;;;;;;;20.38;10.43;;;;;;;;;;2092726;28;20025;-75
2023/12/20 02:40:04;;;;;;;19.73;10.25;;;;;;;;;;2094459;28;20102;-76
2023/12/20 02:41:25;;;;;;;29.13;10.70;;;;;;;;;;2094329;28;20472;-76
2023/12/20 02:42:46;;;;;;;20.00;9.90;;;;;;;;;;2092875;28;20032;-76
2023/12/20 02:44:06;;;;;;;20.75;11.35;;;;;;;;;;2091322;28;20591;-76
2023/12/20 02:45:27;;;;;;;22.98;10.38;;;;;;;;;;2090933;28;20094;-75
2023/12/20 02:46:48;;;;;;;23.38;9.02;;;;;;;;;;2091540;28;20024;-75
2023/12/20 02:48:09;;;;;;;14.32;10.95;;;;;;;;;;2089472;28;20716;-76
2023/12/20 02:49:30;;;;;;;20.60;9.52;;;;;;;;;;2094117;28;20037;-75
2023/12/20 02:50:51;;;;;;;22.95;10.40;;;;;;;;;;2091230;28;20039;-76
2023/12/20 02:52:12;;;;;;;20.48;10.38;;;;;;;;;;2093103;28;20090;-76
2023/12/20 02:53:33;;;;;;;27.58;10.45;;;;;;;;;;2094680;28;20032;-75
2023/12/20 02:54:54;;;;;;;20.05;10.20;;;;;;;;;;2095337;28;20530;-75
2023/12/20 02:56:15;;;;;;;22.25;9.63;;;;;;;;;;2093109;28;20041;-75
2023/12/20 02:57:36;;;;;;;20.80;8.95;;;;;;;;;;2093793;28;20021;-75
2023/12/20 02:58:57;;;;;;;21.08;9.95;;;;;;;;;;2091142;28;20405;-76
2023/12/20 03:00:18;;;;;;;18.90;9.65;;;;;;;;;;2092498;28;20073;-75
2023/12/20 03:01:42;;;;;;;27.38;10.23;;;;;;;;;;2091078;28;20447;-75
2023/12/20 03:03:03;;;;;;;21.17;9.32;;;;;;;;;;2091165;28;20186;-75
2023/12/20 03:04:25;;;;;;;25.02;10.45;;;;;;;;;;2091276;28;20041;-76
2023/12/20 03:05:46;;;;;;;23.27;10.43;;;;;;;;;;2091413;28;20037;-76
2023/12/20 03:07:07;;;;;;;27.70;11.32;;;;;;;;;;2094572;28;20028;-76
2023/12/20 03:08:28;;;;;;;18.98;10.55;;;;;;;;;;2094906;28;20067;-76
2023/12/20 03:09:49;;;;;;;27.98;9.13;;;;;;;;;;2094394;28;20131;-76
2023/12/20 03:11:10;;;;;;;26.25;10.80;;;;;;;;;;2095070;28;20062;-76
2023/12/20 03:12:30;;;;;;;20.65;9.65;;;;;;;;;;2094236;28;20045;-76
2023/12/20 03:13:51;;;;;;;22.58;10.25;;;;;;;;;;2094197;28;20029;-76
2023/12/20 03:15:12;;;;;;;20.95;9.35;;;;;;;;;;2092958;28;20028;-76
2023/12/20 03:16:33;;;;;;;14.77;10.57;;;;;;;;;;2093683;28;20109;-76
2023/12/20 03:17:54;;;;;;;21.33;10.13;;;;;;;;;;2096014;28;20036;-75
2023/12/20 03:19:15;;;;;;;24.23;10.27;;;;;;;;;;2092691;28;20024;-76
2023/12/20 03:20:36;;;;;;;21.52;10.52;;;;;;;;;;2092557;28;20459;-76
2023/12/20 03:22:00;;;;;;;24.88;10.25;;;;;;;;;;2093735;28;20094;-76
2023/12/20 03:23:21;;;;;;;22.17;9.90;;;;;;;;;;2090387;28;20037;-76
2023/12/20 03:24:42;;;;;;;19.13;9.55;;;;;;;;;;2095823;28;20375;-76
2023/12/20 03:26:03;;;;;;;23.08;9.80;;;;;;;;;;2091692;28;20033;-76
2023/12/20 03:27:24;;;;;;;24.63;10.45;;;;;;;;;;2093904;28;20024;-75
2023/12/20 03:28:45;;;;;;;31.00;9.15;;;;;;;;;;2095013;28;20036;-76
2023/12/20 03:30:06;;;;;;;32.08;10.95;;;;;;;;;;2095821;28;20025;-76
2023/12/20 03:31:27;;;;;;;25.42;10.60;;;;;;;;;;2090843;28;20029;-76
2023/12/20 03:32:48;;;;;;;22.38;9.93;;;;;;;;;;2093160;28;20040;-76
2023/12/20 03:34:09;;;;;;;24.77;9.43;;;;;;;;;;2094624;28;20458;-76
2023/12/20 03:35:29;;;;;;;21.35;9.88;;;;;;;;;;2094382;28;20059;-76
2023/12/20 03:36:50;;;;;;;23.83;9.73;;;;;;;;;;2076725;28;20032;-76
2023/12/20 03:38:11;;;;;;;19.33;9.32;;;;;;;;;;2090922;28;20028;-76
2023/12/20 03:39:32;;;;;;;19.23;10.10;;;;;;;;;;2096019;28;20021;-76
2023/12/20 03:40:53;;;;;;;21.08;9.60;;;;;;;;;;2096846;28;20443;-76
2023/12/20 03:42:14;;;;;;;23.88;9.90;;;;;;;;;;2096100;28;20033;-76
2023/12/20 03:43:35;;;;;;;19.10;8.52;;;;;;;;;;2095515;28;20111;-76
2023/12/20 03:44:56;;;;;;;26.55;10.85;;;;;;;;;;2092542;28;20529;-76
2023/12/20 03:46:17;;;;;;;20.00;10.25;;;;;;;;;;2091233;28;20037;-76
2023/12/20 03:47:37;;;;;;;20.42;9.88;;;;;;;;;;2099469;28;20043;-75
2023/12/20 03:48:58;;;;;;;22.88;9.50;;;;;;;;;;2098635;28;20025;-76
2023/12/20 03:50:19;;;;;;;26.73;9.77;;;;;;;;;;2097282;28;20029;-76
2023/12/20 03:51:41;;;;;;;23.60;10.20;;;;;;;;;;2096639;28;20408;-76
2023/12/20 03:53:03;;;;;;;;;;;;;;;;;;2097177;28;20037;-75
2023/12/20 03:54:24;;;;;;;26.30;9.73;;;;;;;;;;2097962;28;20433;-76
2023/12/20 03:55:45;;;;;;;23.77;9.38;;;;;;;;;;2097232;28;20112;-76
2023/12/20 03:57:06;;;;;;;19.20;10.45;;;;;;;;;;2093461;28;20025;-76
2023/12/20 03:58:27;;;;;;;27.15;10.70;;;;;;;;;;2096343;28;20035;-75
2023/12/20 03:59:48;;;;;;;20.52;10.07;;;;;;;;;;2090428;28;20341;-76
2023/12/20 04:01:10;;;;;;;32.05;10.02;;;;;;;;;;2091017;28;20047;-77
2023/12/20 04:02:30;;;;;;;23.38;10.02;;;;;;;;;;2096669;28;20025;-76
2023/12/20 04:03:51;;;;;;;24.50;10.15;;;;;;;;;;2088182;28;20033;-76
2023/12/20 04:05:12;;;;;;;22.13;10.35;;;;;;;;;;2103489;28;20395;-76
2023/12/20 04:06:33;;;;;;;23.05;9.98;;;;;;;;;;2099234;28;20028;-76
2023/12/20 04:07:54;;;;;;;27.30;11.15;;;;;;;;;;2099375;28;20029;-77
2023/12/20 04:09:15;;;;;;;21.17;9.23;;;;;;;;;;2097119;28;20054;-77
2023/12/20 04:10:37;;;;;;;26.95;9.88;;;;;;;;;;2099560;28;20040;-76
2023/12/20 04:11:58;;;;;;;22.88;9.18;;;;;;;;;;2095579;28;20032;-76
2023/12/20 04:13:18;;;;;;;23.63;11.10;;;;;;;;;;2100066;28;20487;-76
2023/12/20 04:14:39;;;;;;;30.02;10.57;;;;;;;;;;2094848;28;20028;-75
2023/12/20 04:16:00;;;;;;;24.80;11.65;;;;;;;;;;2097932;28;20089;-75
2023/12/20 04:17:22;;;;;;;21.95;9.55;;;;;;;;;;2094792;28;20461;-77
2023/12/20 04:18:43;;;;;;;23.83;9.85;;;;;;;;;;2103184;28;20020;-75
2023/12/20 04:20:05;;;;;;;29.83;10.73;;;;;;;;;;2103368;28;20036;-73
2023/12/20 04:21:26;;;;;;;24.73;10.15;;;;;;;;;;2103249;28;20071;-76
2023/12/20 04:22:47;;;;;;;22.70;9.85;;;;;;;;;;2102229;28;20029;-76
2023/12/20 04:24:08;;;;;;;22.77;10.20;;;;;;;;;;2096274;28;20504;-75
2023/12/20 04:25:28;;;;;;;24.42;10.75;;;;;;;;;;2099138;28;20036;-75
2023/12/20 04:26:49;;;;;;;29.40;11.50;;;;;;;;;;2093666;28;20028;-75
2023/12/20 04:28:10;;;;;;;26.60;11.15;;;;;;;;;;2093702;28;20476;-77
2023/12/20 04:29:31;;;;;;;29.17;8.70;;;;;;;;;;2101455;28;20180;-76
2023/12/20 04:30:52;;;;;;;20.90;9.45;;;;;;;;;;2101223;28;20479;-77
2023/12/20 04:32:13;;;;;;;30.08;10.48;;;;;;;;;;2093262;28;20032;-75
2023/12/20 04:33:34;;;;;;;25.75;10.07;;;;;;;;;;2091382;28;21177;-76
2023/12/20 04:34:55;;;;;;;33.03;10.55;;;;;;;;;;2094807;28;20037;-77
2023/12/20 04:36:16;;;;;;;29.98;9.35;;;;;;;;;;2090275;28;20134;-76
2023/12/20 04:37:37;;;;;;;28.48;11.95;;;;;;;;;;2089323;28;20040;-77
2023/12/20 04:38:59;;;;;;;36.17;11.55;;;;;;;;;;2100386;28;20078;-76
2023/12/20 04:40:20;;;;;;;27.83;10.15;;;;;;;;;;2101714;28;20377;-76
2023/12/20 04:41:41;;;;;;;23.50;10.60;;;;;;;;;;2102049;28;20040;-77
2023/12/20 04:43:02;;;;;;;22.42;10.75;;;;;;;;;;2103416;28;20078;-77
2023/12/20 04:44:23;;;;;;;22.25;10.90;;;;;;;;;;2095271;28;20585;-76
2023/12/20 04:45:44;;;;;;;29.20;10.60;;;;;;;;;;2100295;28;20024;-77
2023/12/20 04:47:05;;;;;;;25.63;10.25;;;;;;;;;;2089078;28;20078;-76
2023/12/20 04:48:26;;;;;;;28.10;10.80;;;;;;;;;;2098922;28;20040;-77
2023/12/20 04:49:47;;;;;;;20.65;9.88;;;;;;;;;;2101743;28;20024;-77
2023/12/20 04:51:08;;;;;;;24.55;9.75;;;;;;;;;;2102538;28;20025;-77
2023/12/20 04:52:29;;;;;;;20.02;9.98;;;;;;;;;;2095434;28;21094;-76
2023/12/20 04:53:49;;;;;;;29.90;11.48;;;;;;;;;;2088170;28;20053;-76
2023/12/20 04:55:11;;;;;;;24.70;10.38;;;;;;;;;;2093577;28;20032;-77
2023/12/20 04:56:32;;;;;;;22.63;9.60;;;;;;;;;;2093013;28;20041;-76
2023/12/20 04:57:54;;;;;;;21.38;10.02;;;;;;;;;;2089148;28;20021;-77
2023/12/20 04:59:15;;;;;;;25.55;10.23;;;;;;;;;;2084022;28;20028;-77
2023/12/20 05:00:36;;;;;;;22.70;11.13;;;;;;;;;;2082443;28;20091;-76
2023/12/20 05:01:57;;;;;;;24.63;10.13;;;;;;;;;;2095158;28;20496;-77
2023/12/20 05:03:18;;;;;;;32.90;12.63;;;;;;;;;;2085400;28;20480;-76
2023/12/20 05:04:39;;;;;;;24.48;10.15;;;;;;;;;;2083825;28;20033;-76
2023/12/20 05:06:00;;;;;;;20.15;10.30;;;;;;;;;;2091695;28;20036;-76
2023/12/20 05:07:21;;;;;;;21.05;9.23;;;;;;;;;;2087435;28;20029;-76
2023/12/20 05:08:42;;;;;;;27.48;9.85;;;;;;;;;;2091267;28;20048;-76
2023/12/20 05:10:04;;;;;;;27.73;10.82;;;;;;;;;;2093861;28;20020;-76
2023/12/20 05:11:25;;;;;;;;;;;;;;;;;;2085956;28;20101;-76
2023/12/20 05:12:45;;;;;;;23.73;9.23;;;;;;;;;;2093226;28;19909;-76
2023/12/20 05:14:07;;;;;;;19.70;9.88;;;;;;;;;;2094516;28;20407;-75
2023/12/20 05:15:28;;;;;;;29.92;11.02;;;;;;;;;;2093269;28;20066;-75
2023/12/20 05:16:48;;;;;;;23.45;10.02;;;;;;;;;;2092407;28;20094;-75
2023/12/20 05:18:09;;;;;;;22.20;9.98;;;;;;;;;;2099176;28;20134;-76
2023/12/20 05:19:31;;;;;;;24.58;9.35;;;;;;;;;;2094763;28;20574;-76
2023/12/20 05:20:52;;;;;;;24.98;11.88;;;;;;;;;;2091833;28;20036;-76
2023/12/20 05:22:13;;;;;;;19.15;9.75;;;;;;;;;;2101119;28;20061;-76
2023/12/20 05:23:33;;;;;;;24.27;10.05;;;;;;;;;;2101603;28;20040;-75
2023/12/20 05:24:54;;;;;;;33.63;11.48;;;;;;;;;;2093428;28;20037;-76
2023/12/20 05:26:15;;;;;;;25.92;10.63;;;;;;;;;;2099430;28;20105;-76
2023/12/20 05:27:36;;;;;;;26.75;10.57;;;;;;;;;;2094253;28;20504;-75
2023/12/20 05:28:57;;;;;;;19.20;10.43;;;;;;;;;;2097802;28;20036;-75
2023/12/20 05:30:18;;;;;;;22.17;10.05;;;;;;;;;;2093994;28;20032;-76
2023/12/20 05:31:39;;;;;;;26.50;10.50;;;;;;;;;;2098459;28;20387;-76
2023/12/20 05:33:00;;;;;;;24.58;10.48;;;;;;;;;;2102217;28;20036;-77
2023/12/20 05:34:21;;;;;;;34.28;11.07;;;;;;;;;;2097771;28;20024;-76
2023/12/20 05:35:41;;;;;;;28.55;10.45;;;;;;;;;;2091419;28;20033;-75
2023/12/20 05:37:02;;;;;;;24.00;11.55;;;;;;;;;;2094194;28;20741;-76
2023/12/20 05:38:23;;;;;;;27.23;11.95;;;;;;;;;;2095763;28;20478;-76
2023/12/20 05:39:44;;;;;;;24.77;10.05;;;;;;;;;;2097508;28;21177;-76
2023/12/20 05:41:05;;;;;;;31.02;10.98;;;;;;;;;;2090762;28;20044;-75
2023/12/20 05:42:26;;;;;;;23.58;10.07;;;;;;;;;;2085153;28;20154;-76
2023/12/20 05:43:47;;;;;;;24.13;10.75;;;;;;;;;;2088360;28;20062;-76
2023/12/20 05:45:09;;;;;;;28.05;11.02;;;;;;;;;;2091439;28;20429;-76
2023/12/20 05:46:29;;;;;;;25.98;10.65;;;;;;;;;;2092042;28;20127;-76
2023/12/20 05:47:50;;;;;;;17.98;12.00;;;;;;;;;;2095353;28;20016;-76
2023/12/20 05:49:11;;;;;;;31.92;10.60;;;;;;;;;;2088444;28;20420;-76
2023/12/20 05:50:32;;;;;;;20.77;9.05;;;;;;;;;;2084082;28;20067;-76
2023/12/20 05:51:53;;;;;;;27.67;10.45;;;;;;;;;;2093302;28;20069;-76
2023/12/20 05:53:14;;;;;;;28.55;10.75;;;;;;;;;;2088155;28;20017;-76
2023/12/20 05:54:35;;;;;;;27.10;9.63;;;;;;;;;;2089168;28;20087;-76
2023/12/20 05:55:56;;;;;;;22.52;8.93;;;;;;;;;;2097071;28;20569;-76
2023/12/20 05:57:17;;;;;;;25.52;9.48;;;;;;;;;;2095356;28;20091;-76
2023/12/20 05:58:38;;;;;;;28.95;11.68;;;;;;;;;;2096113;28;20028;-75
2023/12/20 05:59:59;;;;;;;23.02;9.88;;;;;;;;;;2090267;28;20051;-76
2023/12/20 06:01:20;;;;;;;26.13;10.93;;;;;;;;;;2093796;28;20039;-76
2023/12/20 06:02:41;;;;;;;33.67;9.60;;;;;;;;;;2094594;28;20477;-76
2023/12/20 06:04:03;;;;;;;19.58;9.80;;;;;;;;;;2092892;28;20072;-77
2023/12/20 06:05:24;;;;;;;20.48;10.00;;;;;;;;;;2097327;28;20031;-76
2023/12/20 06:06:45;;;;;;;29.02;11.25;;;;;;;;;;2092341;28;20524;-75
2023/12/20 06:08:06;;;;;;;20.95;10.35;;;;;;;;;;2083863;28;21542;-76
2023/12/20 06:09:27;;;;;;;29.50;9.95;;;;;;;;;;2082813;28;20033;-75
2023/12/20 06:10:48;;;;;;;28.15;9.63;;;;;;;;;;2087733;28;20029;-76
2023/12/20 06:12:08;;;;;;;23.33;9.45;;;;;;;;;;2083253;28;20437;-76
2023/12/20 06:13:30;;;;;;;29.17;11.13;;;;;;;;;;2086656;28;20396;-76
2023/12/20 06:14:50;;;;;;;18.70;10.13;;;;;;;;;;2085353;28;20037;-75
2023/12/20 06:16:11;;;;;;;20.83;9.82;;;;;;;;;;2087086;28;20041;-76
2023/12/20 06:17:32;;;;;;;26.63;8.85;;;;;;;;;;2084638;28;20454;-76
2023/12/20 06:18:53;;;;;;;26.58;9.77;;;;;;;;;;2084648;28;20037;-76
2023/12/20 06:20:14;;;;;;;25.70;9.55;;;;;;;;;;2086391;28;20037;-76
2023/12/20 06:21:35;;;;;;;20.23;9.38;;;;;;;;;;2088201;28;20071;-76
2023/12/20 06:22:56;;;;;;;15.48;9.77;;;;;;;;;;2087653;28;20025;-77
2023/12/20 06:24:17;;;;;;;21.98;10.05;;;;;;;;;;2086480;28;20049;-77
2023/12/20 06:25:37;;;;;;;22.38;10.48;;;;;;;;;;2084812;28;20041;-76
2023/12/20 06:26:58;;;;;;;23.60;11.32;;;;;;;;;;2084797;28;20025;-77
2023/12/20 06:28:19;;;;;;;20.60;10.02;;;;;;;;;;2083711;28;20036;-76
2023/12/20 06:29:41;;;;;;;20.95;9.40;;;;;;;;;;2084031;28;20075;-75
2023/12/20 06:31:02;;;;;;;23.60;10.10;;;;;;;;;;2085846;28;20033;-75
2023/12/20 06:32:24;;;;;;;23.10;10.32;;;;;;;;;;2085216;28;20094;-75
2023/12/20 06:33:45;;;;;;;23.63;9.23;;;;;;;;;;2086030;28;20037;-75
2023/12/20 06:35:06;;;;;;;28.75;9.43;;;;;;;;;;2085822;28;20432;-76
2023/12/20 06:36:27;;;;;;;25.70;10.50;;;;;;;;;;2082980;28;20041;-76
2023/12/20 06:37:47;;;;;;;25.63;10.18;;;;;;;;;;2086035;28;20547;-75
2023/12/20 06:39:08;;;;;;;26.70;10.43;;;;;;;;;;2084966;28;20059;-76
2023/12/20 06:40:29;;;;;;;22.30;10.07;;;;;;;;;;2089072;28;20341;-75
2023/12/20 06:41:51;;;;;;;28.58;9.63;;;;;;;;;;2080331;28;20524;-75
2023/12/20 06:43:13;;;;;;;22.13;10.02;;;;;;;;;;2083545;28;20044;-75
2023/12/20 06:44:34;;;;;;;22.83;9.10;;;;;;;;;;2088255;28;20045;-75
2023/12/20 06:45:55;;;;;;;26.05;10.05;;;;;;;;;;2085505;28;20024;-75
2023/12/20 06:47:16;;;;;;;21.33;9.38;;;;;;;;;;2087663;28;20361;-76
2023/12/20 06:48:37;;;;;;;20.73;9.80;;;;;;;;;;2087699;28;20079;-76
2023/12/20 06:49:57;;;;;;;27.38;9.65;;;;;;;;;;2088607;28;20021;-76
2023/12/20 06:51:20;;;;;;;22.73;10.70;;;;;;;;;;2088758;28;20029;-76
2023/12/20 06:52:40;;;;;;;;;;;;;;;;;;2086071;28;20021;-76
2023/12/20 06:54:02;;;;;;;21.90;8.73;;;;;;;;;;2085318;28;19921;-76
2023/12/20 06:55:24;;;;;;;28.45;9.63;;;;;;;;;;2080611;28;20044;-76
2023/12/20 06:56:44;;;;;;;30.58;8.57;;;;;;;;;;2079742;28;20025;-76
2023/12/20 06:58:06;;;;;;;27.15;9.10;;;;;;;;;;2076511;28;20045;-76
2023/12/20 06:59:27;;;;;;;22.83;8.98;;;;;;;;;;2093930;28;20037;-76
2023/12/20 07:00:48;;;;;;;32.53;9.68;;;;;;;;;;2083278;28;20501;-76
2023/12/20 07:02:09;;;;;;;22.35;9.20;;;;;;;;;;2080661;28;20049;-76
2023/12/20 07:03:30;;;;;;;18.48;9.63;;;;;;;;;;2079271;28;20041;-76
2023/12/20 07:04:51;;;;;;;24.40;9.10;;;;;;;;;;2088759;28;20028;-76
2023/12/20 07:06:12;;;;;;;17.85;9.50;;;;;;;;;;2082016;28;20440;-77
2023/12/20 07:07:32;;;;;;;30.77;10.73;;;;;;;;;;2085261;28;20024;-78
2023/12/20 07:08:53;;;;;;;28.83;9.85;;;;;;;;;;2085534;28;20041;-77
2023/12/20 07:10:14;;;;;;;28.30;9.77;;;;;;;;;;2084402;28;20525;-77
2023/12/20 07:11:35;;;;;;;19.00;9.70;;;;;;;;;;2084539;28;20045;-77
2023/12/20 07:12:56;;;;;;;23.17;10.02;;;;;;;;;;2087217;28;20029;-77
2023/12/20 07:14:17;;;;;;;26.33;10.48;;;;;;;;;;2088713;28;20508;-77
2023/12/20 07:15:38;;;;;;;25.75;9.98;;;;;;;;;;2086022;28;20151;-77
2023/12/20 07:16:59;;;;;;;27.83;10.13;;;;;;;;;;2087902;28;20437;-77
2023/12/20 07:18:19;;;;;;;24.10;10.32;;;;;;;;;;2083621;28;20037;-77
2023/12/20 07:19:41;;;;;;;18.13;9.25;;;;;;;;;;2089032;28;20067;-78
2023/12/20 07:21:03;;;;;;;19.85;9.93;;;;;;;;;;2073115;28;20026;-77
2023/12/20 07:22:24;;;;;;;24.10;10.25;;;;;;;;;;2086134;28;20033;-78
2023/12/20 07:23:44;;;;;;;22.67;10.70;;;;;;;;;;2084546;28;20037;-77
2023/12/20 07:25:06;;;;;;;24.77;10.43;;;;;;;;;;2088693;28;20029;-77
2023/12/20 07:26:26;;;;;;;21.95;9.75;;;;;;;;;;2081058;28;20060;-77
2023/12/20 07:27:47;;;;;;;20.27;9.57;;;;;;;;;;2084862;28;20040;-77
2023/12/20 07:29:08;;;;;;;25.40;9.23;;;;;;;;;;2079517;28;20033;-77
2023/12/20 07:30:29;;;;;;;18.08;9.38;;;;;;;;;;2080304;28;20033;-77
2023/12/20 07:31:51;;;;;;;19.38;9.57;;;;;;;;;;2080550;28;20030;-77
2023/12/20 07:33:12;;;;;;;24.83;9.93;;;;;;;;;;2085777;28;20025;-77
2023/12/20 07:34:33;;;;;;;23.83;10.65;;;;;;;;;;2086800;28;20099;-77
2023/12/20 07:35:54;;;;;;;23.55;10.25;;;;;;;;;;2085827;28;20051;-77
2023/12/20 07:37:15;;;;;;;22.85;9.27;;;;;;;;;;2084799;28;20041;-77
2023/12/20 07:38:36;;;;;;;20.08;9.75;;;;;;;;;;2088852;28;20128;-77
2023/12/20 07:39:57;;;;;;;23.67;10.38;;;;;;;;;;2089965;28;20106;-77
2023/12/20 07:41:21;;;;;;;27.58;10.85;;;;;;;;;;2089974;28;20029;-78
2023/12/20 07:42:41;;;;;;;28.48;10.88;;;;;;;;;;2090162;28;20078;-78
2023/12/20 07:44:04;;;;;;;26.30;10.50;;;;;;;;;;2089679;28;20036;-78
2023/12/20 07:45:25;;;;;;;24.15;10.32;;;;;;;;;;2093220;28;20028;-77
2023/12/20 07:46:46;;;;;;;22.30;11.60;;;;;;;;;;2095449;28;20481;-78
2023/12/20 07:48:07;;;;;;;25.17;10.55;;;;;;;;;;2091203;28;20025;-78
2023/12/20 07:49:28;;;;;;;23.20;9.85;;;;;;;;;;2086649;28;20432;-77
2023/12/20 07:50:49;;;;;;;27.02;10.52;;;;;;;;;;2086486;28;20025;-77
2023/12/20 07:52:09;;;;;;;29.42;9.98;;;;;;;;;;2088875;28;20400;-78
2023/12/20 07:53:30;;;;;;;24.73;11.50;;;;;;;;;;2078159;28;20092;-77
2023/12/20 07:54:51;;;;;;;23.90;10.68;;;;;;;;;;2078141;28;20034;-79
2023/12/20 07:56:16;;;;;;;21.48;9.98;;;;;;;;;;2080942;28;20025;-77